sensor_id;sensor_type;location;lat;lon;timestamp;P1;durP1;ratioP1;P2;durP2;ratioP2
45344;SDS011;31078;48.304;11.896;2022-10-13T00:01:55;21.15;;;14.38;;
45344;SDS011;31078;48.304;11.896;2022-10-13T00:04:21;21.75;;;15.35;;
45344;SDS011;31078;48.304;11.896;2022-10-13T00:06:48;18.40;;;14.20;;
45344;SDS011;31078;48.304;11.896;2022-10-13T00:09:15;20.77;;;14.57;;
45344;SDS011;31078;48.304;11.896;2022-10-13T00:11:43;18.75;;;13.75;;
45344;SDS011;31078;48.304;11.896;2022-10-13T00:14:09;20.25;;;13.80;;
45344;SDS011;31078;48.304;11.896;2022-10-13T00:16:36;17.60;;;12.27;;
45344;SDS011;31078;48.304;11.896;2022-10-13T00:19:03;18.92;;;12.90;;
45344;SDS011;31078;48.304;11.896;2022-10-13T00:21:30;20.88;;;13.48;;
45344;SDS011;31078;48.304;11.896;2022-10-13T00:23:57;19.80;;;13.40;;
45344;SDS011;31078;48.304;11.896;2022-10-13T00:26:24;22.45;;;13.73;;
45344;SDS011;31078;48.304;11.896;2022-10-13T00:28:54;16.88;;;11.90;;
45344;SDS011;31078;48.304;11.896;2022-10-13T00:31:22;17.90;;;11.82;;
45344;SDS011;31078;48.304;11.896;2022-10-13T00:33:50;17.17;;;11.75;;
45344;SDS011;31078;48.304;11.896;2022-10-13T00:36:18;16.58;;;11.75;;
45344;SDS011;31078;48.304;11.896;2022-10-13T00:38:45;16.13;;;11.65;;
45344;SDS011;31078;48.304;11.896;2022-10-13T00:41:12;15.70;;;11.00;;
45344;SDS011;31078;48.304;11.896;2022-10-13T00:43:50;16.45;;;11.70;;
45344;SDS011;31078;48.304;11.896;2022-10-13T00:46:25;17.90;;;13.20;;
45344;SDS011;31078;48.304;11.896;2022-10-13T00:48:53;20.92;;;12.10;;
45344;SDS011;31078;48.304;11.896;2022-10-13T00:51:23;17.80;;;11.70;;
45344;SDS011;31078;48.304;11.896;2022-10-13T00:53:53;15.50;;;11.27;;
45344;SDS011;31078;48.304;11.896;2022-10-13T00:56:20;15.30;;;10.85;;
45344;SDS011;31078;48.304;11.896;2022-10-13T00:58:49;16.02;;;11.05;;
45344;SDS011;31078;48.304;11.896;2022-10-13T01:01:18;17.88;;;11.05;;
45344;SDS011;31078;48.304;11.896;2022-10-13T01:03:44;17.25;;;11.50;;
45344;SDS011;31078;48.304;11.896;2022-10-13T01:06:12;18.80;;;11.02;;
45344;SDS011;31078;48.304;11.896;2022-10-13T01:08:40;15.65;;;10.40;;
45344;SDS011;31078;48.304;11.896;2022-10-13T01:11:11;14.38;;;9.80;;
45344;SDS011;31078;48.304;11.896;2022-10-13T01:13:49;16.08;;;10.43;;
45344;SDS011;31078;48.304;11.896;2022-10-13T01:16:26;17.60;;;10.68;;
45344;SDS011;31078;48.304;11.896;2022-10-13T01:19:02;16.27;;;10.70;;
45344;SDS011;31078;48.304;11.896;2022-10-13T01:21:39;13.50;;;10.00;;
45344;SDS011;31078;48.304;11.896;2022-10-13T01:27:13;12.40;;;8.38;;
45344;SDS011;31078;48.304;11.896;2022-10-13T01:30:03;9.20;;;6.60;;
45344;SDS011;31078;48.304;11.896;2022-10-13T01:32:34;14.73;;;9.02;;
45344;SDS011;31078;48.304;11.896;2022-10-13T01:35:19;15.73;;;9.13;;
45344;SDS011;31078;48.304;11.896;2022-10-13T01:37:53;12.18;;;8.43;;
45344;SDS011;31078;48.304;11.896;2022-10-13T01:40:27;10.68;;;8.13;;
45344;SDS011;31078;48.304;11.896;2022-10-13T01:42:57;12.60;;;7.40;;
45344;SDS011;31078;48.304;11.896;2022-10-13T01:45:31;10.73;;;8.60;;
45344;SDS011;31078;48.304;11.896;2022-10-13T01:48:02;13.38;;;9.18;;
45344;SDS011;31078;48.304;11.896;2022-10-13T01:50:31;11.85;;;9.05;;
45344;SDS011;31078;48.304;11.896;2022-10-13T01:53:00;14.52;;;9.80;;
45344;SDS011;31078;48.304;11.896;2022-10-13T01:55:29;14.70;;;9.40;;
45344;SDS011;31078;48.304;11.896;2022-10-13T01:57:56;14.10;;;9.20;;
45344;SDS011;31078;48.304;11.896;2022-10-13T02:00:23;11.07;;;8.57;;
45344;SDS011;31078;48.304;11.896;2022-10-13T02:02:55;15.25;;;9.93;;
45344;SDS011;31078;48.304;11.896;2022-10-13T02:05:32;13.15;;;9.25;;
45344;SDS011;31078;48.304;11.896;2022-10-13T02:08:14;12.52;;;9.55;;
45344;SDS011;31078;48.304;11.896;2022-10-13T02:10:49;16.08;;;10.77;;
45344;SDS011;31078;48.304;11.896;2022-10-13T02:13:23;11.75;;;9.10;;
45344;SDS011;31078;48.304;11.896;2022-10-13T02:15:53;15.98;;;10.27;;
45344;SDS011;31078;48.304;11.896;2022-10-13T02:18:24;14.10;;;9.32;;
45344;SDS011;31078;48.304;11.896;2022-10-13T02:20:53;12.90;;;9.40;;
45344;SDS011;31078;48.304;11.896;2022-10-13T02:23:20;13.15;;;8.90;;
45344;SDS011;31078;48.304;11.896;2022-10-13T02:25:47;9.60;;;7.25;;
45344;SDS011;31078;48.304;11.896;2022-10-13T02:28:14;8.40;;;6.07;;
45344;SDS011;31078;48.304;11.896;2022-10-13T02:30:43;7.78;;;6.07;;
45344;SDS011;31078;48.304;11.896;2022-10-13T02:33:10;7.80;;;6.38;;
45344;SDS011;31078;48.304;11.896;2022-10-13T02:35:40;11.77;;;8.27;;
45344;SDS011;31078;48.304;11.896;2022-10-13T02:38:07;10.23;;;8.10;;
45344;SDS011;31078;48.304;11.896;2022-10-13T02:40:34;10.75;;;8.10;;
45344;SDS011;31078;48.304;11.896;2022-10-13T02:43:01;15.75;;;8.40;;
45344;SDS011;31078;48.304;11.896;2022-10-13T02:45:27;10.95;;;7.72;;
45344;SDS011;31078;48.304;11.896;2022-10-13T02:47:54;9.57;;;7.18;;
45344;SDS011;31078;48.304;11.896;2022-10-13T02:50:21;10.32;;;6.97;;
45344;SDS011;31078;48.304;11.896;2022-10-13T02:52:50;8.70;;;6.60;;
45344;SDS011;31078;48.304;11.896;2022-10-13T02:55:16;9.50;;;6.28;;
45344;SDS011;31078;48.304;11.896;2022-10-13T02:57:43;7.93;;;6.45;;
45344;SDS011;31078;48.304;11.896;2022-10-13T03:00:10;8.90;;;6.60;;
45344;SDS011;31078;48.304;11.896;2022-10-13T03:02:37;9.07;;;6.25;;
45344;SDS011;31078;48.304;11.896;2022-10-13T03:05:04;10.93;;;7.03;;
45344;SDS011;31078;48.304;11.896;2022-10-13T03:07:31;23.38;;;9.48;;
45344;SDS011;31078;48.304;11.896;2022-10-13T03:09:59;34.45;;;10.13;;
45344;SDS011;31078;48.304;11.896;2022-10-13T03:12:26;19.08;;;10.18;;
45344;SDS011;31078;48.304;11.896;2022-10-13T03:14:52;33.00;;;12.25;;
45344;SDS011;31078;48.304;11.896;2022-10-13T03:17:19;34.20;;;12.98;;
45344;SDS011;31078;48.304;11.896;2022-10-13T03:19:46;39.85;;;12.93;;
45344;SDS011;31078;48.304;11.896;2022-10-13T03:22:13;27.77;;;13.85;;
45344;SDS011;31078;48.304;11.896;2022-10-13T03:24:39;17.13;;;11.45;;
45344;SDS011;31078;48.304;11.896;2022-10-13T03:27:07;18.33;;;11.40;;
45344;SDS011;31078;48.304;11.896;2022-10-13T03:29:34;29.25;;;12.82;;
45344;SDS011;31078;48.304;11.896;2022-10-13T03:32:01;19.75;;;12.80;;
45344;SDS011;31078;48.304;11.896;2022-10-13T03:34:27;17.60;;;11.02;;
45344;SDS011;31078;48.304;11.896;2022-10-13T03:36:54;24.83;;;12.35;;
45344;SDS011;31078;48.304;11.896;2022-10-13T03:39:21;25.13;;;11.82;;
45344;SDS011;31078;48.304;11.896;2022-10-13T03:41:48;19.02;;;11.75;;
45344;SDS011;31078;48.304;11.896;2022-10-13T03:44:16;17.48;;;11.07;;
45344;SDS011;31078;48.304;11.896;2022-10-13T03:46:43;18.85;;;11.18;;
45344;SDS011;31078;48.304;11.896;2022-10-13T03:49:09;20.67;;;12.32;;
45344;SDS011;31078;48.304;11.896;2022-10-13T03:51:37;20.35;;;11.95;;
45344;SDS011;31078;48.304;11.896;2022-10-13T03:54:03;17.98;;;10.70;;
45344;SDS011;31078;48.304;11.896;2022-10-13T03:56:30;20.30;;;11.57;;
45344;SDS011;31078;48.304;11.896;2022-10-13T03:58:57;20.35;;;11.43;;
45344;SDS011;31078;48.304;11.896;2022-10-13T04:01:27;29.75;;;12.05;;
45344;SDS011;31078;48.304;11.896;2022-10-13T04:03:55;19.85;;;11.15;;
45344;SDS011;31078;48.304;11.896;2022-10-13T04:06:26;21.85;;;11.95;;
45344;SDS011;31078;48.304;11.896;2022-10-13T04:08:53;18.60;;;11.77;;
45344;SDS011;31078;48.304;11.896;2022-10-13T04:11:20;29.17;;;12.77;;
45344;SDS011;31078;48.304;11.896;2022-10-13T04:13:47;19.35;;;11.95;;
45344;SDS011;31078;48.304;11.896;2022-10-13T04:16:15;17.60;;;11.02;;
45344;SDS011;31078;48.304;11.896;2022-10-13T04:18:44;19.00;;;11.80;;
45344;SDS011;31078;48.304;11.896;2022-10-13T04:21:17;17.50;;;11.82;;
45344;SDS011;31078;48.304;11.896;2022-10-13T04:23:43;17.65;;;11.63;;
45344;SDS011;31078;48.304;11.896;2022-10-13T04:26:13;31.80;;;13.00;;
45344;SDS011;31078;48.304;11.896;2022-10-13T04:28:41;39.25;;;13.07;;
45344;SDS011;31078;48.304;11.896;2022-10-13T04:31:08;29.88;;;13.32;;
45344;SDS011;31078;48.304;11.896;2022-10-13T04:33:34;27.73;;;15.48;;
45344;SDS011;31078;48.304;11.896;2022-10-13T04:36:03;29.63;;;15.35;;
45344;SDS011;31078;48.304;11.896;2022-10-13T04:38:31;22.25;;;15.52;;
45344;SDS011;31078;48.304;11.896;2022-10-13T04:40:57;24.17;;;15.30;;
45344;SDS011;31078;48.304;11.896;2022-10-13T04:43:24;27.65;;;17.08;;
45344;SDS011;31078;48.304;11.896;2022-10-13T04:45:50;23.90;;;16.52;;
45344;SDS011;31078;48.304;11.896;2022-10-13T04:48:17;26.95;;;16.52;;
45344;SDS011;31078;48.304;11.896;2022-10-13T04:50:43;22.17;;;14.82;;
45344;SDS011;31078;48.304;11.896;2022-10-13T04:53:11;21.95;;;15.02;;
45344;SDS011;31078;48.304;11.896;2022-10-13T04:55:38;21.02;;;14.70;;
45344;SDS011;31078;48.304;11.896;2022-10-13T04:58:04;22.23;;;14.35;;
45344;SDS011;31078;48.304;11.896;2022-10-13T05:00:31;22.55;;;14.63;;
45344;SDS011;31078;48.304;11.896;2022-10-13T05:02:58;19.70;;;13.57;;
45344;SDS011;31078;48.304;11.896;2022-10-13T05:05:24;23.48;;;14.48;;
45344;SDS011;31078;48.304;11.896;2022-10-13T05:07:51;20.40;;;13.68;;
45344;SDS011;31078;48.304;11.896;2022-10-13T05:10:19;17.45;;;13.65;;
45344;SDS011;31078;48.304;11.896;2022-10-13T05:12:45;20.83;;;13.95;;
45344;SDS011;31078;48.304;11.896;2022-10-13T05:15:12;19.23;;;12.98;;
45344;SDS011;31078;48.304;11.896;2022-10-13T05:17:38;16.40;;;12.10;;
45344;SDS011;31078;48.304;11.896;2022-10-13T05:20:05;20.20;;;14.48;;
45344;SDS011;31078;48.304;11.896;2022-10-13T05:22:33;18.33;;;13.45;;
45344;SDS011;31078;48.304;11.896;2022-10-13T05:24:59;17.40;;;12.65;;
45344;SDS011;31078;48.304;11.896;2022-10-13T05:27:27;19.50;;;12.90;;
45344;SDS011;31078;48.304;11.896;2022-10-13T05:29:54;21.83;;;14.43;;
45344;SDS011;31078;48.304;11.896;2022-10-13T05:32:20;18.80;;;12.65;;
45344;SDS011;31078;48.304;11.896;2022-10-13T05:34:47;18.30;;;12.90;;
45344;SDS011;31078;48.304;11.896;2022-10-13T05:37:15;21.88;;;14.18;;
45344;SDS011;31078;48.304;11.896;2022-10-13T05:39:42;18.05;;;13.75;;
45344;SDS011;31078;48.304;11.896;2022-10-13T05:42:09;19.75;;;13.38;;
45344;SDS011;31078;48.304;11.896;2022-10-13T05:44:37;18.95;;;12.18;;
45344;SDS011;31078;48.304;11.896;2022-10-13T05:47:03;18.75;;;12.63;;
45344;SDS011;31078;48.304;11.896;2022-10-13T05:49:30;16.35;;;11.57;;
45344;SDS011;31078;48.304;11.896;2022-10-13T05:51:57;16.55;;;11.25;;
45344;SDS011;31078;48.304;11.896;2022-10-13T05:54:28;17.23;;;12.45;;
45344;SDS011;31078;48.304;11.896;2022-10-13T05:57:00;17.50;;;12.23;;
45344;SDS011;31078;48.304;11.896;2022-10-13T05:59:31;17.48;;;12.73;;
45344;SDS011;31078;48.304;11.896;2022-10-13T06:02:04;18.33;;;12.80;;
45344;SDS011;31078;48.304;11.896;2022-10-13T06:04:34;19.98;;;13.68;;
45344;SDS011;31078;48.304;11.896;2022-10-13T06:07:04;28.73;;;13.82;;
45344;SDS011;31078;48.304;11.896;2022-10-13T06:09:32;21.92;;;14.43;;
45344;SDS011;31078;48.304;11.896;2022-10-13T06:12:00;20.45;;;13.98;;
45344;SDS011;31078;48.304;11.896;2022-10-13T06:14:26;20.73;;;13.50;;
45344;SDS011;31078;48.304;11.896;2022-10-13T06:16:53;19.33;;;13.32;;
45344;SDS011;31078;48.304;11.896;2022-10-13T06:19:21;17.25;;;12.02;;
45344;SDS011;31078;48.304;11.896;2022-10-13T06:21:47;21.02;;;12.95;;
45344;SDS011;31078;48.304;11.896;2022-10-13T06:24:14;18.98;;;12.57;;
45344;SDS011;31078;48.304;11.896;2022-10-13T06:26:41;17.58;;;12.18;;
45344;SDS011;31078;48.304;11.896;2022-10-13T06:29:07;17.15;;;12.27;;
45344;SDS011;31078;48.304;11.896;2022-10-13T06:31:34;18.10;;;13.05;;
45344;SDS011;31078;48.304;11.896;2022-10-13T06:34:00;17.45;;;12.38;;
45344;SDS011;31078;48.304;11.896;2022-10-13T06:36:28;20.02;;;12.75;;
45344;SDS011;31078;48.304;11.896;2022-10-13T06:38:55;18.73;;;12.40;;
45344;SDS011;31078;48.304;11.896;2022-10-13T06:41:22;19.67;;;13.32;;
45344;SDS011;31078;48.304;11.896;2022-10-13T06:43:48;19.13;;;12.65;;
45344;SDS011;31078;48.304;11.896;2022-10-13T06:46:15;18.92;;;12.85;;
45344;SDS011;31078;48.304;11.896;2022-10-13T06:48:42;21.58;;;13.93;;
45344;SDS011;31078;48.304;11.896;2022-10-13T06:51:09;19.33;;;12.85;;
45344;SDS011;31078;48.304;11.896;2022-10-13T06:53:38;19.35;;;12.32;;
45344;SDS011;31078;48.304;11.896;2022-10-13T06:56:05;21.50;;;14.05;;
45344;SDS011;31078;48.304;11.896;2022-10-13T06:58:32;24.65;;;15.50;;
45344;SDS011;31078;48.304;11.896;2022-10-13T07:00:59;18.35;;;12.57;;
45344;SDS011;31078;48.304;11.896;2022-10-13T07:03:26;19.63;;;11.93;;
45344;SDS011;31078;48.304;11.896;2022-10-13T07:05:52;19.60;;;12.30;;
45344;SDS011;31078;48.304;11.896;2022-10-13T07:08:19;21.13;;;13.13;;
45344;SDS011;31078;48.304;11.896;2022-10-13T07:10:47;19.05;;;12.70;;
45344;SDS011;31078;48.304;11.896;2022-10-13T07:13:14;20.25;;;13.27;;
45344;SDS011;31078;48.304;11.896;2022-10-13T07:15:41;20.20;;;12.77;;
45344;SDS011;31078;48.304;11.896;2022-10-13T07:18:07;19.42;;;13.45;;
45344;SDS011;31078;48.304;11.896;2022-10-13T07:20:34;22.02;;;13.73;;
45344;SDS011;31078;48.304;11.896;2022-10-13T07:23:01;20.40;;;13.38;;
45344;SDS011;31078;48.304;11.896;2022-10-13T07:25:28;19.35;;;13.43;;
45344;SDS011;31078;48.304;11.896;2022-10-13T07:27:56;23.15;;;14.15;;
45344;SDS011;31078;48.304;11.896;2022-10-13T07:30:23;24.67;;;13.43;;
45344;SDS011;31078;48.304;11.896;2022-10-13T07:32:50;21.42;;;13.07;;
45344;SDS011;31078;48.304;11.896;2022-10-13T07:35:16;23.13;;;13.07;;
45344;SDS011;31078;48.304;11.896;2022-10-13T07:37:43;21.60;;;13.43;;
45344;SDS011;31078;48.304;11.896;2022-10-13T07:40:10;19.35;;;12.82;;
45344;SDS011;31078;48.304;11.896;2022-10-13T07:42:37;25.80;;;14.32;;
45344;SDS011;31078;48.304;11.896;2022-10-13T07:45:06;24.10;;;14.75;;
45344;SDS011;31078;48.304;11.896;2022-10-13T07:47:33;20.60;;;13.20;;
45344;SDS011;31078;48.304;11.896;2022-10-13T07:50:00;20.63;;;13.02;;
45344;SDS011;31078;48.304;11.896;2022-10-13T07:52:26;23.20;;;13.40;;
45344;SDS011;31078;48.304;11.896;2022-10-13T07:54:53;21.73;;;13.20;;
45344;SDS011;31078;48.304;11.896;2022-10-13T07:57:20;24.40;;;13.45;;
45344;SDS011;31078;48.304;11.896;2022-10-13T07:59:47;24.48;;;14.80;;
45344;SDS011;31078;48.304;11.896;2022-10-13T08:02:15;27.33;;;15.02;;
45344;SDS011;31078;48.304;11.896;2022-10-13T08:04:41;23.77;;;14.48;;
45344;SDS011;31078;48.304;11.896;2022-10-13T08:07:08;23.00;;;14.35;;
45344;SDS011;31078;48.304;11.896;2022-10-13T08:09:35;26.30;;;14.65;;
45344;SDS011;31078;48.304;11.896;2022-10-13T08:12:02;22.98;;;14.20;;
45344;SDS011;31078;48.304;11.896;2022-10-13T08:14:29;20.02;;;13.00;;
45344;SDS011;31078;48.304;11.896;2022-10-13T08:16:56;19.55;;;12.77;;
45344;SDS011;31078;48.304;11.896;2022-10-13T08:19:24;22.10;;;13.55;;
45344;SDS011;31078;48.304;11.896;2022-10-13T08:21:52;26.90;;;13.85;;
45344;SDS011;31078;48.304;11.896;2022-10-13T08:24:19;24.08;;;14.68;;
45344;SDS011;31078;48.304;11.896;2022-10-13T08:26:46;21.05;;;13.70;;
45344;SDS011;31078;48.304;11.896;2022-10-13T08:29:14;23.45;;;13.40;;
45344;SDS011;31078;48.304;11.896;2022-10-13T08:31:41;24.83;;;15.32;;
45344;SDS011;31078;48.304;11.896;2022-10-13T08:34:09;25.70;;;14.70;;
45344;SDS011;31078;48.304;11.896;2022-10-13T08:36:37;23.35;;;14.57;;
45344;SDS011;31078;48.304;11.896;2022-10-13T08:39:05;23.33;;;14.13;;
45344;SDS011;31078;48.304;11.896;2022-10-13T08:41:34;20.67;;;13.90;;
45344;SDS011;31078;48.304;11.896;2022-10-13T08:44:04;28.35;;;14.70;;
45344;SDS011;31078;48.304;11.896;2022-10-13T08:46:36;27.40;;;15.75;;
45344;SDS011;31078;48.304;11.896;2022-10-13T08:49:08;25.75;;;15.27;;
45344;SDS011;31078;48.304;11.896;2022-10-13T08:51:42;25.48;;;15.60;;
45344;SDS011;31078;48.304;11.896;2022-10-13T08:54:09;23.63;;;15.70;;
45344;SDS011;31078;48.304;11.896;2022-10-13T08:56:40;26.27;;;16.85;;
45344;SDS011;31078;48.304;11.896;2022-10-13T08:59:11;25.27;;;16.55;;
45344;SDS011;31078;48.304;11.896;2022-10-13T09:01:40;25.35;;;15.95;;
45344;SDS011;31078;48.304;11.896;2022-10-13T09:04:15;25.33;;;16.60;;
45344;SDS011;31078;48.304;11.896;2022-10-13T09:06:54;33.00;;;17.73;;
45344;SDS011;31078;48.304;11.896;2022-10-13T09:09:27;28.88;;;17.95;;
45344;SDS011;31078;48.304;11.896;2022-10-13T09:11:53;30.58;;;18.08;;
45344;SDS011;31078;48.304;11.896;2022-10-13T09:14:21;28.27;;;17.50;;
45344;SDS011;31078;48.304;11.896;2022-10-13T09:16:49;24.10;;;17.25;;
45344;SDS011;31078;48.304;11.896;2022-10-13T09:19:19;29.50;;;18.50;;
45344;SDS011;31078;48.304;11.896;2022-10-13T09:21:48;26.73;;;17.58;;
45344;SDS011;31078;48.304;11.896;2022-10-13T09:24:17;32.33;;;16.90;;
45344;SDS011;31078;48.304;11.896;2022-10-13T09:26:46;26.30;;;16.05;;
45344;SDS011;31078;48.304;11.896;2022-10-13T09:29:16;33.58;;;18.10;;
45344;SDS011;31078;48.304;11.896;2022-10-13T09:31:44;26.45;;;17.15;;
45344;SDS011;31078;48.304;11.896;2022-10-13T09:34:13;29.30;;;17.52;;
45344;SDS011;31078;48.304;11.896;2022-10-13T09:36:54;27.92;;;16.27;;
45344;SDS011;31078;48.304;11.896;2022-10-13T09:39:23;27.77;;;17.55;;
45344;SDS011;31078;48.304;11.896;2022-10-13T09:41:50;28.58;;;16.55;;
45344;SDS011;31078;48.304;11.896;2022-10-13T09:44:17;29.63;;;16.55;;
45344;SDS011;31078;48.304;11.896;2022-10-13T09:46:53;30.95;;;16.65;;
45344;SDS011;31078;48.304;11.896;2022-10-13T09:49:25;27.38;;;16.15;;
45344;SDS011;31078;48.304;11.896;2022-10-13T09:51:58;23.83;;;16.15;;
45344;SDS011;31078;48.304;11.896;2022-10-13T09:54:32;28.45;;;16.15;;
45344;SDS011;31078;48.304;11.896;2022-10-13T09:57:04;31.55;;;16.27;;
45344;SDS011;31078;48.304;11.896;2022-10-13T09:59:40;27.65;;;16.73;;
45344;SDS011;31078;48.304;11.896;2022-10-13T10:02:14;24.80;;;15.60;;
45344;SDS011;31078;48.304;11.896;2022-10-13T10:04:46;33.22;;;15.50;;
45344;SDS011;31078;48.304;11.896;2022-10-13T10:07:13;37.80;;;16.83;;
45344;SDS011;31078;48.304;11.896;2022-10-13T10:09:47;30.10;;;15.85;;
45344;SDS011;31078;48.304;11.896;2022-10-13T10:12:19;24.13;;;15.52;;
45344;SDS011;31078;48.304;11.896;2022-10-13T10:14:48;26.33;;;15.30;;
45344;SDS011;31078;48.304;11.896;2022-10-13T10:17:16;26.38;;;14.88;;
45344;SDS011;31078;48.304;11.896;2022-10-13T10:19:52;23.70;;;14.60;;
45344;SDS011;31078;48.304;11.896;2022-10-13T10:22:30;26.15;;;15.05;;
45344;SDS011;31078;48.304;11.896;2022-10-13T10:25:07;24.10;;;15.07;;
45344;SDS011;31078;48.304;11.896;2022-10-13T10:27:44;21.27;;;13.38;;
45344;SDS011;31078;48.304;11.896;2022-10-13T10:30:18;24.30;;;14.48;;
45344;SDS011;31078;48.304;11.896;2022-10-13T10:32:46;30.50;;;15.85;;
45344;SDS011;31078;48.304;11.896;2022-10-13T10:35:19;27.90;;;14.98;;
45344;SDS011;31078;48.304;11.896;2022-10-13T10:37:56;24.70;;;15.02;;
45344;SDS011;31078;48.304;11.896;2022-10-13T10:40:36;27.42;;;16.30;;
45344;SDS011;31078;48.304;11.896;2022-10-13T10:46:03;25.15;;;15.02;;
45344;SDS011;31078;48.304;11.896;2022-10-13T10:48:37;25.67;;;15.00;;
45344;SDS011;31078;48.304;11.896;2022-10-13T10:51:04;32.88;;;15.38;;
45344;SDS011;31078;48.304;11.896;2022-10-13T10:53:34;23.90;;;14.52;;
45344;SDS011;31078;48.304;11.896;2022-10-13T10:56:10;31.27;;;14.88;;
45344;SDS011;31078;48.304;11.896;2022-10-13T10:58:43;24.35;;;15.85;;
45344;SDS011;31078;48.304;11.896;2022-10-13T11:01:21;29.58;;;14.25;;
45344;SDS011;31078;48.304;11.896;2022-10-13T11:03:57;30.55;;;15.13;;
45344;SDS011;31078;48.304;11.896;2022-10-13T11:06:47;25.45;;;15.32;;
45344;SDS011;31078;48.304;11.896;2022-10-13T11:09:14;25.48;;;14.27;;
45344;SDS011;31078;48.304;11.896;2022-10-13T11:12:22;23.85;;;14.60;;
45344;SDS011;31078;48.304;11.896;2022-10-13T11:15:01;23.25;;;14.23;;
45344;SDS011;31078;48.304;11.896;2022-10-13T11:17:30;25.75;;;13.73;;
45344;SDS011;31078;48.304;11.896;2022-10-13T11:19:58;22.50;;;12.90;;
45344;SDS011;31078;48.304;11.896;2022-10-13T11:22:25;23.23;;;13.77;;
45344;SDS011;31078;48.304;11.896;2022-10-13T11:24:55;25.77;;;13.02;;
45344;SDS011;31078;48.304;11.896;2022-10-13T11:27:26;29.20;;;13.40;;
45344;SDS011;31078;48.304;11.896;2022-10-13T11:30:03;24.23;;;12.07;;
45344;SDS011;31078;48.304;11.896;2022-10-13T11:32:41;28.20;;;12.30;;
45344;SDS011;31078;48.304;11.896;2022-10-13T11:35:20;22.08;;;11.40;;
45344;SDS011;31078;48.304;11.896;2022-10-13T11:37:52;21.63;;;12.88;;
45344;SDS011;31078;48.304;11.896;2022-10-13T11:40:30;23.48;;;12.80;;
45344;SDS011;31078;48.304;11.896;2022-10-13T11:43:17;22.67;;;11.90;;
45344;SDS011;31078;48.304;11.896;2022-10-13T11:46:07;23.75;;;11.75;;
45344;SDS011;31078;48.304;11.896;2022-10-13T11:52:12;24.55;;;11.57;;
45344;SDS011;31078;48.304;11.896;2022-10-13T11:54:50;19.35;;;10.50;;
45344;SDS011;31078;48.304;11.896;2022-10-13T11:57:21;24.98;;;11.10;;
45344;SDS011;31078;48.304;11.896;2022-10-13T11:59:51;15.23;;;10.45;;
45344;SDS011;31078;48.304;11.896;2022-10-13T12:02:20;17.55;;;10.55;;
45344;SDS011;31078;48.304;11.896;2022-10-13T12:04:57;23.92;;;10.38;;
45344;SDS011;31078;48.304;11.896;2022-10-13T12:07:26;18.90;;;10.60;;
45344;SDS011;31078;48.304;11.896;2022-10-13T12:09:58;22.50;;;10.38;;
45344;SDS011;31078;48.304;11.896;2022-10-13T12:12:25;19.70;;;10.20;;
45344;SDS011;31078;48.304;11.896;2022-10-13T12:14:54;21.30;;;9.73;;
45344;SDS011;31078;48.304;11.896;2022-10-13T12:17:22;18.58;;;9.85;;
45344;SDS011;31078;48.304;11.896;2022-10-13T12:19:55;21.35;;;10.00;;
45344;SDS011;31078;48.304;11.896;2022-10-13T12:22:24;23.38;;;10.85;;
45344;SDS011;31078;48.304;11.896;2022-10-13T12:24:58;18.77;;;9.70;;
45344;SDS011;31078;48.304;11.896;2022-10-13T12:27:26;21.20;;;10.48;;
45344;SDS011;31078;48.304;11.896;2022-10-13T12:29:57;18.25;;;9.82;;
45344;SDS011;31078;48.304;11.896;2022-10-13T12:32:25;17.02;;;10.02;;
45344;SDS011;31078;48.304;11.896;2022-10-13T12:34:53;16.13;;;10.13;;
45344;SDS011;31078;48.304;11.896;2022-10-13T12:37:24;18.08;;;9.88;;
45344;SDS011;31078;48.304;11.896;2022-10-13T12:39:52;23.25;;;10.10;;
45344;SDS011;31078;48.304;11.896;2022-10-13T12:42:22;19.70;;;9.98;;
45344;SDS011;31078;48.304;11.896;2022-10-13T12:44:53;20.30;;;9.67;;
45344;SDS011;31078;48.304;11.896;2022-10-13T12:47:38;16.25;;;9.02;;
45344;SDS011;31078;48.304;11.896;2022-10-13T12:50:21;22.58;;;9.93;;
45344;SDS011;31078;48.304;11.896;2022-10-13T12:53:01;23.98;;;8.98;;
45344;SDS011;31078;48.304;11.896;2022-10-13T12:55:30;16.30;;;9.15;;
45344;SDS011;31078;48.304;11.896;2022-10-13T12:57:58;20.85;;;9.45;;
45344;SDS011;31078;48.304;11.896;2022-10-13T13:00:25;15.15;;;8.90;;
45344;SDS011;31078;48.304;11.896;2022-10-13T13:02:56;15.88;;;8.98;;
45344;SDS011;31078;48.304;11.896;2022-10-13T13:05:27;23.45;;;9.25;;
45344;SDS011;31078;48.304;11.896;2022-10-13T13:07:55;19.70;;;9.68;;
45344;SDS011;31078;48.304;11.896;2022-10-13T13:10:21;17.13;;;9.25;;
45344;SDS011;31078;48.304;11.896;2022-10-13T13:12:49;17.50;;;8.73;;
45344;SDS011;31078;48.304;11.896;2022-10-13T13:15:17;17.23;;;9.13;;
45344;SDS011;31078;48.304;11.896;2022-10-13T13:18:20;13.23;;;8.48;;
45344;SDS011;31078;48.304;11.896;2022-10-13T13:20:55;26.92;;;12.93;;
45344;SDS011;31078;48.304;11.896;2022-10-13T13:23:22;20.38;;;10.70;;
45344;SDS011;31078;48.304;11.896;2022-10-13T13:26:01;16.45;;;9.27;;
45344;SDS011;31078;48.304;11.896;2022-10-13T13:28:30;13.15;;;8.40;;
45344;SDS011;31078;48.304;11.896;2022-10-13T13:30:57;18.15;;;9.57;;
45344;SDS011;31078;48.304;11.896;2022-10-13T13:33:25;14.43;;;8.27;;
45344;SDS011;31078;48.304;11.896;2022-10-13T13:35:52;18.15;;;9.00;;
45344;SDS011;31078;48.304;11.896;2022-10-13T13:38:19;13.00;;;8.40;;
45344;SDS011;31078;48.304;11.896;2022-10-13T13:40:45;15.52;;;8.45;;
45344;SDS011;31078;48.304;11.896;2022-10-13T13:43:12;19.05;;;8.85;;
45344;SDS011;31078;48.304;11.896;2022-10-13T13:45:42;20.17;;;9.25;;
45344;SDS011;31078;48.304;11.896;2022-10-13T13:48:09;13.77;;;8.15;;
45344;SDS011;31078;48.304;11.896;2022-10-13T13:50:38;14.93;;;8.70;;
45344;SDS011;31078;48.304;11.896;2022-10-13T13:53:05;16.30;;;9.40;;
45344;SDS011;31078;48.304;11.896;2022-10-13T13:55:34;17.05;;;8.90;;
45344;SDS011;31078;48.304;11.896;2022-10-13T13:58:02;15.07;;;9.48;;
45344;SDS011;31078;48.304;11.896;2022-10-13T14:00:28;15.00;;;9.75;;
45344;SDS011;31078;48.304;11.896;2022-10-13T14:02:55;17.27;;;8.65;;
45344;SDS011;31078;48.304;11.896;2022-10-13T14:05:22;21.80;;;9.05;;
45344;SDS011;31078;48.304;11.896;2022-10-13T14:07:55;13.50;;;9.30;;
45344;SDS011;31078;48.304;11.896;2022-10-13T14:10:23;14.93;;;7.93;;
45344;SDS011;31078;48.304;11.896;2022-10-13T14:12:50;16.58;;;9.43;;
45344;SDS011;31078;48.304;11.896;2022-10-13T14:15:17;16.30;;;8.35;;
45344;SDS011;31078;48.304;11.896;2022-10-13T14:17:44;11.82;;;8.02;;
45344;SDS011;31078;48.304;11.896;2022-10-13T14:20:10;15.35;;;8.70;;
45344;SDS011;31078;48.304;11.896;2022-10-13T14:22:37;10.75;;;7.60;;
45344;SDS011;31078;48.304;11.896;2022-10-13T14:25:06;17.42;;;8.05;;
45344;SDS011;31078;48.304;11.896;2022-10-13T14:27:33;15.25;;;8.80;;
45344;SDS011;31078;48.304;11.896;2022-10-13T14:30:01;15.15;;;7.53;;
45344;SDS011;31078;48.304;11.896;2022-10-13T14:32:28;19.30;;;9.07;;
45344;SDS011;31078;48.304;11.896;2022-10-13T14:34:54;12.73;;;7.82;;
45344;SDS011;31078;48.304;11.896;2022-10-13T14:37:21;13.15;;;8.30;;